sensor_id;sensor_type;location;lat;lon;timestamp;pressure;altitude;pressure_sealevel;temperature;humidity
36192;BME280;22233;42.708;23.360;2023-06-24T00:00:44;95439.19;;;24.77;62.02
36192;BME280;22233;42.708;23.360;2023-06-24T00:03:10;95434.91;;;24.58;62.38
36192;BME280;22233;42.708;23.360;2023-06-24T00:05:38;95438.50;;;24.41;63.26
36192;BME280;22233;42.708;23.360;2023-06-24T00:08:04;95439.25;;;24.59;62.59
36192;BME280;22233;42.708;23.360;2023-06-24T00:10:33;95437.03;;;24.11;64.00
36192;BME280;22233;42.708;23.360;2023-06-24T00:12:58;95429.38;;;24.40;63.27
36192;BME280;22233;42.708;23.360;2023-06-24T00:15:26;95438.50;;;24.51;63.21
36192;BME280;22233;42.708;23.360;2023-06-24T00:17:52;95430.97;;;24.45;63.30
36192;BME280;22233;42.708;23.360;2023-06-24T00:20:17;95436.97;;;24.29;63.68
36192;BME280;22233;42.708;23.360;2023-06-24T00:22:45;95434.94;;;24.37;63.01
36192;BME280;22233;42.708;23.360;2023-06-24T00:25:14;95435.84;;;24.05;64.41
36192;BME280;22233;42.708;23.360;2023-06-24T00:27:41;95430.25;;;24.19;63.57
36192;BME280;22233;42.708;23.360;2023-06-24T00:30:07;95440.53;;;24.29;63.85
36192;BME280;22233;42.708;23.360;2023-06-24T00:32:32;95438.59;;;24.12;64.33
36192;BME280;22233;42.708;23.360;2023-06-24T00:34:58;95431.78;;;24.35;63.32
36192;BME280;22233;42.708;23.360;2023-06-24T00:37:25;95423.81;;;24.44;62.88
36192;BME280;22233;42.708;23.360;2023-06-24T00:39:50;95416.38;;;24.12;63.45
36192;BME280;22233;42.708;23.360;2023-06-24T00:42:16;95439.00;;;24.07;63.79
36192;BME280;22233;42.708;23.360;2023-06-24T00:44:42;95435.03;;;24.04;63.82
36192;BME280;22233;42.708;23.360;2023-06-24T00:47:08;95437.75;;;24.29;63.20
36192;BME280;22233;42.708;23.360;2023-06-24T00:49:34;95427.38;;;24.41;62.82
36192;BME280;22233;42.708;23.360;2023-06-24T00:51:59;95426.34;;;23.91;64.21
36192;BME280;22233;42.708;23.360;2023-06-24T00:54:26;95410.06;;;24.15;63.41
36192;BME280;22233;42.708;23.360;2023-06-24T00:56:57;95409.72;;;23.99;63.58
36192;BME280;22233;42.708;23.360;2023-06-24T00:59:25;95418.00;;;24.06;63.49
36192;BME280;22233;42.708;23.360;2023-06-24T01:01:54;95411.69;;;23.62;64.67
36192;BME280;22233;42.708;23.360;2023-06-24T01:04:20;95421.19;;;23.90;64.10
36192;BME280;22233;42.708;23.360;2023-06-24T01:06:45;95415.28;;;23.56;64.83
36192;BME280;22233;42.708;23.360;2023-06-24T01:09:12;95411.69;;;23.69;64.54
36192;BME280;22233;42.708;23.360;2023-06-24T01:11:38;95405.75;;;23.85;64.36
36192;BME280;22233;42.708;23.360;2023-06-24T01:14:04;95399.03;;;23.79;63.97
36192;BME280;22233;42.708;23.360;2023-06-24T01:16:48;95414.88;;;23.89;63.57
36192;BME280;22233;42.708;23.360;2023-06-24T01:33:50;95420.31;;;24.29;62.21
36192;BME280;22233;42.708;23.360;2023-06-24T01:36:21;95417.16;;;24.16;62.22
36192;BME280;22233;42.708;23.360;2023-06-24T01:38:56;95400.91;;;24.25;61.98
36192;BME280;22233;42.708;23.360;2023-06-24T01:41:25;95410.81;;;24.23;62.35
36192;BME280;22233;42.708;23.360;2023-06-24T01:43:52;95414.72;;;24.32;62.13
36192;BME280;22233;42.708;23.360;2023-06-24T01:46:22;95416.03;;;23.92;63.30
36192;BME280;22233;42.708;23.360;2023-06-24T01:48:48;95420.78;;;24.02;62.96
36192;BME280;22233;42.708;23.360;2023-06-24T01:51:20;95439.75;;;24.25;62.14
36192;BME280;22233;42.708;23.360;2023-06-24T01:53:51;95431.03;;;24.16;61.87
36192;BME280;22233;42.708;23.360;2023-06-24T01:56:18;95433.78;;;24.34;61.44
36192;BME280;22233;42.708;23.360;2023-06-24T01:58:45;95439.69;;;24.43;61.40
36192;BME280;22233;42.708;23.360;2023-06-24T02:01:13;95434.16;;;24.40;61.32
36192;BME280;22233;42.708;23.360;2023-06-24T02:03:41;95447.59;;;24.59;61.50
36192;BME280;22233;42.708;23.360;2023-06-24T02:06:07;95451.94;;;24.67;61.18
36192;BME280;22233;42.708;23.360;2023-06-24T02:08:34;95453.88;;;24.70;60.87
36192;BME280;22233;42.708;23.360;2023-06-24T02:11:01;95455.88;;;24.66;60.99
36192;BME280;22233;42.708;23.360;2023-06-24T02:13:29;95445.53;;;24.70;61.02
36192;BME280;22233;42.708;23.360;2023-06-24T02:15:58;95453.06;;;24.77;61.27
36192;BME280;22233;42.708;23.360;2023-06-24T02:18:26;95459.78;;;24.83;61.16
36192;BME280;22233;42.708;23.360;2023-06-24T02:20:53;95445.91;;;24.80;61.11
36192;BME280;22233;42.708;23.360;2023-06-24T02:23:21;95459.06;;;24.65;61.76
36192;BME280;22233;42.708;23.360;2023-06-24T02:25:48;95453.97;;;24.42;61.98
36192;BME280;22233;42.708;23.360;2023-06-24T02:28:14;95488.50;;;24.26;62.68
36192;BME280;22233;42.708;23.360;2023-06-24T02:30:41;95483.81;;;23.55;65.38
36192;BME280;22233;42.708;23.360;2023-06-24T02:33:08;95484.97;;;23.54;64.71
36192;BME280;22233;42.708;23.360;2023-06-24T02:35:34;95491.34;;;23.69;64.33
36192;BME280;22233;42.708;23.360;2023-06-24T02:37:59;95488.53;;;23.33;65.84
36192;BME280;22233;42.708;23.360;2023-06-24T02:40:25;95484.59;;;23.45;65.36
36192;BME280;22233;42.708;23.360;2023-06-24T02:42:52;95486.53;;;23.23;66.25
36192;BME280;22233;42.708;23.360;2023-06-24T02:45:17;95484.16;;;23.32;66.32
36192;BME280;22233;42.708;23.360;2023-06-24T02:47:45;95496.06;;;23.47;66.25
36192;BME280;22233;42.708;23.360;2023-06-24T02:50:11;95486.94;;;23.28;66.58
36192;BME280;22233;42.708;23.360;2023-06-24T02:52:38;95481.38;;;23.10;67.48
36192;BME280;22233;42.708;23.360;2023-06-24T02:55:05;95493.97;;;22.97;68.23
36192;BME280;22233;42.708;23.360;2023-06-24T02:57:31;95507.72;;;22.68;69.29
36192;BME280;22233;42.708;23.360;2023-06-24T02:59:57;95493.34;;;22.38;70.38
36192;BME280;22233;42.708;23.360;2023-06-24T03:02:23;95513.13;;;22.40;70.97
36192;BME280;22233;42.708;23.360;2023-06-24T03:04:52;95512.78;;;22.52;70.47
36192;BME280;22233;42.708;23.360;2023-06-24T03:07:18;95508.13;;;22.78;69.08
36192;BME280;22233;42.708;23.360;2023-06-24T03:09:47;95504.22;;;22.86;68.82
36192;BME280;22233;42.708;23.360;2023-06-24T03:12:13;95506.25;;;22.96;68.54
36192;BME280;22233;42.708;23.360;2023-06-24T03:14:38;95507.03;;;23.00;69.06
36192;BME280;22233;42.708;23.360;2023-06-24T03:17:04;95510.22;;;23.06;68.69
36192;BME280;22233;42.708;23.360;2023-06-24T03:19:29;95510.50;;;22.76;69.33
36192;BME280;22233;42.708;23.360;2023-06-24T03:21:55;95512.91;;;22.81;69.39
36192;BME280;22233;42.708;23.360;2023-06-24T03:24:20;95503.41;;;22.85;69.37
36192;BME280;22233;42.708;23.360;2023-06-24T03:26:46;95516.53;;;22.92;69.09
36192;BME280;22233;42.708;23.360;2023-06-24T03:29:11;95510.91;;;22.74;69.13
36192;BME280;22233;42.708;23.360;2023-06-24T03:31:37;95523.16;;;22.73;70.21
36192;BME280;22233;42.708;23.360;2023-06-24T03:34:03;95533.53;;;22.90;69.41
36192;BME280;22233;42.708;23.360;2023-06-24T03:36:28;95530.47;;;23.17;68.87
36192;BME280;22233;42.708;23.360;2023-06-24T03:38:54;95538.34;;;23.04;69.63
36192;BME280;22233;42.708;23.360;2023-06-24T03:41:19;95544.28;;;23.13;68.58
36192;BME280;22233;42.708;23.360;2023-06-24T03:43:48;95552.19;;;23.04;68.35
36192;BME280;22233;42.708;23.360;2023-06-24T03:46:13;95549.25;;;22.76;70.02
36192;BME280;22233;42.708;23.360;2023-06-24T03:48:39;95542.66;;;22.98;68.90
36192;BME280;22233;42.708;23.360;2023-06-24T03:51:05;95541.13;;;23.04;68.49
36192;BME280;22233;42.708;23.360;2023-06-24T03:53:30;95546.69;;;23.15;67.88
36192;BME280;22233;42.708;23.360;2023-06-24T03:55:56;95548.69;;;23.22;68.16
36192;BME280;22233;42.708;23.360;2023-06-24T03:58:21;95547.13;;;23.24;68.01
36192;BME280;22233;42.708;23.360;2023-06-24T04:00:47;95531.69;;;23.34;67.80
36192;BME280;22233;42.708;23.360;2023-06-24T04:03:15;95546.72;;;23.33;67.88
36192;BME280;22233;42.708;23.360;2023-06-24T04:05:43;95543.19;;;23.43;67.37
36192;BME280;22233;42.708;23.360;2023-06-24T04:08:08;95555.47;;;23.49;67.50
36192;BME280;22233;42.708;23.360;2023-06-24T04:10:33;95558.66;;;23.55;67.50
36192;BME280;22233;42.708;23.360;2023-06-24T04:12:59;95539.66;;;23.46;67.25
36192;BME280;22233;42.708;23.360;2023-06-24T04:15:24;95531.66;;;23.16;67.99
36192;BME280;22233;42.708;23.360;2023-06-24T04:17:50;95524.19;;;23.45;67.38
36192;BME280;22233;42.708;23.360;2023-06-24T04:20:18;95518.66;;;23.74;67.12
36192;BME280;22233;42.708;23.360;2023-06-24T04:22:43;95538.09;;;23.92;66.69
36192;BME280;22233;42.708;23.360;2023-06-24T04:25:09;95529.41;;;24.01;66.15
36192;BME280;22233;42.708;23.360;2023-06-24T04:27:35;95530.56;;;23.96;66.23
36192;BME280;22233;42.708;23.360;2023-06-24T04:30:01;95539.69;;;24.11;65.80
36192;BME280;22233;42.708;23.360;2023-06-24T04:32:27;95535.72;;;24.19;65.98
36192;BME280;22233;42.708;23.360;2023-06-24T04:34:53;95530.91;;;24.30;65.45
36192;BME280;22233;42.708;23.360;2023-06-24T04:37:18;95529.31;;;24.37;65.11
36192;BME280;22233;42.708;23.360;2023-06-24T04:39:44;95539.66;;;24.36;64.80
36192;BME280;22233;42.708;23.360;2023-06-24T04:42:11;95551.16;;;24.24;65.29
36192;BME280;22233;42.708;23.360;2023-06-24T04:44:36;95547.59;;;24.16;65.04
36192;BME280;22233;42.708;23.360;2023-06-24T04:47:02;95540.47;;;24.11;65.04
36192;BME280;22233;42.708;23.360;2023-06-24T04:49:28;95532.56;;;24.21;64.44
36192;BME280;22233;42.708;23.360;2023-06-24T04:51:53;95549.59;;;24.19;65.40
36192;BME280;22233;42.708;23.360;2023-06-24T04:54:18;95542.03;;;24.45;63.81
36192;BME280;22233;42.708;23.360;2023-06-24T04:56:44;95558.69;;;24.45;64.04
36192;BME280;22233;42.708;23.360;2023-06-24T04:59:10;95555.13;;;24.55;64.01
36192;BME280;22233;42.708;23.360;2023-06-24T05:01:36;95550.31;;;24.70;64.09
36192;BME280;22233;42.708;23.360;2023-06-24T05:04:01;95551.84;;;24.82;63.92
36192;BME280;22233;42.708;23.360;2023-06-24T05:06:27;95553.03;;;24.88;64.27
36192;BME280;22233;42.708;23.360;2023-06-24T05:08:52;95536.81;;;24.68;63.33
36192;BME280;22233;42.708;23.360;2023-06-24T05:11:17;95544.31;;;24.86;63.77
36192;BME280;22233;42.708;23.360;2023-06-24T05:13:43;95534.34;;;24.96;63.54
36192;BME280;22233;42.708;23.360;2023-06-24T05:16:08;95528.34;;;25.04;62.87
36192;BME280;22233;42.708;23.360;2023-06-24T05:18:34;95530.84;;;24.74;63.12
36192;BME280;22233;42.708;23.360;2023-06-24T05:20:59;95534.72;;;25.01;62.65
36192;BME280;22233;42.708;23.360;2023-06-24T05:23:24;95531.81;;;25.19;62.30
36192;BME280;22233;42.708;23.360;2023-06-24T05:25:50;95520.69;;;25.30;61.74
36192;BME280;22233;42.708;23.360;2023-06-24T05:28:15;95529.41;;;25.36;60.75
36192;BME280;22233;42.708;23.360;2023-06-24T05:30:41;95534.59;;;25.34;61.06
36192;BME280;22233;42.708;23.360;2023-06-24T05:33:07;95534.03;;;25.57;61.08
36192;BME280;22233;42.708;23.360;2023-06-24T05:35:33;95537.09;;;25.69;61.13
36192;BME280;22233;42.708;23.360;2023-06-24T05:37:58;95540.97;;;25.20;61.71
36192;BME280;22233;42.708;23.360;2023-06-24T05:40:23;95535.97;;;25.63;60.22
36192;BME280;22233;42.708;23.360;2023-06-24T05:42:49;95526.44;;;25.64;61.09
36192;BME280;22233;42.708;23.360;2023-06-24T05:45:14;95541.09;;;25.68;61.31
36192;BME280;22233;42.708;23.360;2023-06-24T05:47:40;95531.88;;;25.82;60.12
36192;BME280;22233;42.708;23.360;2023-06-24T05:50:06;95529.22;;;25.64;61.28
36192;BME280;22233;42.708;23.360;2023-06-24T05:52:31;95521.25;;;25.66;60.96
36192;BME280;22233;42.708;23.360;2023-06-24T05:54:57;95510.00;;;25.81;59.96
36192;BME280;22233;42.708;23.360;2023-06-24T05:57:22;95507.69;;;25.72;60.19
36192;BME280;22233;42.708;23.360;2023-06-24T05:59:48;95514.66;;;25.98;59.30
36192;BME280;22233;42.708;23.360;2023-06-24T06:02:13;95518.25;;;25.99;58.83
36192;BME280;22233;42.708;23.360;2023-06-24T06:04:39;95520.53;;;26.07;57.95
36192;BME280;22233;42.708;23.360;2023-06-24T06:07:04;95506.38;;;25.87;58.38
36192;BME280;22233;42.708;23.360;2023-06-24T06:09:30;95512.75;;;25.88;59.90
36192;BME280;22233;42.708;23.360;2023-06-24T06:11:55;95513.53;;;25.92;59.99
36192;BME280;22233;42.708;23.360;2023-06-24T06:14:20;95524.44;;;26.17;58.06
36192;BME280;22233;42.708;23.360;2023-06-24T06:16:46;95505.31;;;26.19;57.93
36192;BME280;22233;42.708;23.360;2023-06-24T06:19:11;95516.53;;;26.12;58.57
36192;BME280;22233;42.708;23.360;2023-06-24T06:21:37;95506.41;;;26.29;57.40
36192;BME280;22233;42.708;23.360;2023-06-24T06:24:03;95512.31;;;26.38;58.90
36192;BME280;22233;42.708;23.360;2023-06-24T06:26:28;95506.41;;;26.33;58.66
36192;BME280;22233;42.708;23.360;2023-06-24T06:28:54;95507.50;;;26.42;57.84
36192;BME280;22233;42.708;23.360;2023-06-24T06:31:19;95518.03;;;26.62;58.27
36192;BME280;22233;42.708;23.360;2023-06-24T06:33:46;95510.66;;;26.44;58.03
36192;BME280;22233;42.708;23.360;2023-06-24T06:36:12;95518.50;;;26.53;59.13
36192;BME280;22233;42.708;23.360;2023-06-24T06:38:39;95518.56;;;26.46;58.77
36192;BME280;22233;42.708;23.360;2023-06-24T06:41:04;95506.66;;;26.45;58.69
36192;BME280;22233;42.708;23.360;2023-06-24T06:43:29;95523.19;;;26.63;58.36
36192;BME280;22233;42.708;23.360;2023-06-24T06:45:55;95521.66;;;26.93;57.87
36192;BME280;22233;42.708;23.360;2023-06-24T06:48:21;95519.50;;;26.74;58.19
36192;BME280;22233;42.708;23.360;2023-06-24T06:50:46;95526.81;;;26.95;57.10
36192;BME280;22233;42.708;23.360;2023-06-24T06:53:12;95533.38;;;27.12;56.41
36192;BME280;22233;42.708;23.360;2023-06-24T06:55:37;95519.03;;;27.13;56.48
36192;BME280;22233;42.708;23.360;2023-06-24T06:58:04;95522.53;;;27.17;56.97
36192;BME280;22233;42.708;23.360;2023-06-24T07:00:30;95524.47;;;27.24;56.36
36192;BME280;22233;42.708;23.360;2023-06-24T07:02:55;95528.44;;;27.54;55.42
36192;BME280;22233;42.708;23.360;2023-06-24T07:05:21;95506.44;;;27.32;55.52
36192;BME280;22233;42.708;23.360;2023-06-24T07:07:46;95528.78;;;27.28;55.55
36192;BME280;22233;42.708;23.360;2023-06-24T07:10:12;95526.38;;;27.30;55.85
36192;BME280;22233;42.708;23.360;2023-06-24T07:12:39;95519.25;;;27.26;57.97
36192;BME280;22233;42.708;23.360;2023-06-24T07:15:04;95518.59;;;27.45;56.20
36192;BME280;22233;42.708;23.360;2023-06-24T07:17:30;95516.50;;;27.53;55.27
36192;BME280;22233;42.708;23.360;2023-06-24T07:19:55;95520.34;;;27.63;55.16
36192;BME280;22233;42.708;23.360;2023-06-24T07:22:21;95516.66;;;27.69;53.61
36192;BME280;22233;42.708;23.360;2023-06-24T07:24:46;95517.53;;;27.90;52.69
36192;BME280;22233;42.708;23.360;2023-06-24T07:27:11;95523.31;;;28.03;53.41
36192;BME280;22233;42.708;23.360;2023-06-24T07:29:37;95524.66;;;28.18;52.99
36192;BME280;22233;42.708;23.360;2023-06-24T07:32:02;95516.72;;;28.37;52.65
36192;BME280;22233;42.708;23.360;2023-06-24T07:34:29;95514.81;;;28.34;52.69
36192;BME280;22233;42.708;23.360;2023-06-24T07:36:55;95519.97;;;28.12;52.94
36192;BME280;22233;42.708;23.360;2023-06-24T07:39:20;95510.56;;;28.25;52.99
36192;BME280;22233;42.708;23.360;2023-06-24T07:41:46;95513.69;;;28.51;51.62
36192;BME280;22233;42.708;23.360;2023-06-24T07:44:11;95510.13;;;28.27;52.30
36192;BME280;22233;42.708;23.360;2023-06-24T07:46:37;95523.69;;;28.52;52.34
36192;BME280;22233;42.708;23.360;2023-06-24T07:49:02;95508.06;;;28.75;52.03
36192;BME280;22233;42.708;23.360;2023-06-24T07:51:28;95525.19;;;28.77;53.39
36192;BME280;22233;42.708;23.360;2023-06-24T07:53:53;95512.88;;;28.74;52.52
36192;BME280;22233;42.708;23.360;2023-06-24T07:56:18;95527.16;;;29.00;51.79
36192;BME280;22233;42.708;23.360;2023-06-24T07:58:44;95511.50;;;29.02;51.49
36192;BME280;22233;42.708;23.360;2023-06-24T08:01:09;95511.44;;;29.06;51.31
36192;BME280;22233;42.708;23.360;2023-06-24T08:03:35;95521.09;;;29.01;49.94
36192;BME280;22233;42.708;23.360;2023-06-24T08:06:02;95532.13;;;29.12;50.43
36192;BME280;22233;42.708;23.360;2023-06-24T08:08:28;95524.00;;;28.98;50.76
36192;BME280;22233;42.708;23.360;2023-06-24T08:10:53;95517.69;;;29.14;49.53
36192;BME280;22233;42.708;23.360;2023-06-24T08:13:18;95530.75;;;29.20;49.31
36192;BME280;22233;42.708;23.360;2023-06-24T08:15:44;95524.72;;;28.82;50.79
36192;BME280;22233;42.708;23.360;2023-06-24T08:18:10;95521.75;;;29.29;48.72
36192;BME280;22233;42.708;23.360;2023-06-24T08:20:35;95517.72;;;29.50;49.54
36192;BME280;22233;42.708;23.360;2023-06-24T08:23:01;95518.50;;;29.67;49.25
36192;BME280;22233;42.708;23.360;2023-06-24T08:25:26;95509.81;;;29.45;49.48
36192;BME280;22233;42.708;23.360;2023-06-24T08:27:52;95524.59;;;29.62;50.02
36192;BME280;22233;42.708;23.360;2023-06-24T08:30:17;95519.00;;;29.62;49.81
36192;BME280;22233;42.708;23.360;2023-06-24T08:32:43;95497.44;;;29.62;48.30
36192;BME280;22233;42.708;23.360;2023-06-24T08:35:09;95501.56;;;29.38;49.41
36192;BME280;22233;42.708;23.360;2023-06-24T08:37:36;95511.84;;;29.61;49.13
36192;BME280;22233;42.708;23.360;2023-06-24T08:40:02;95512.78;;;29.74;49.56
36192;BME280;22233;42.708;23.360;2023-06-24T08:42:29;95494.22;;;29.97;48.57
36192;BME280;22233;42.708;23.360;2023-06-24T08:44:55;95490.16;;;29.65;48.30
36192;BME280;22233;42.708;23.360;2023-06-24T08:47:23;95488.63;;;29.97;48.81
36192;BME280;22233;42.708;23.360;2023-06-24T08:49:52;95494.19;;;30.30;48.63
36192;BME280;22233;42.708;23.360;2023-06-24T08:52:25;95483.31;;;30.48;48.58
36192;BME280;22233;42.708;23.360;2023-06-24T08:54:52;95479.13;;;30.40;47.96
36192;BME280;22233;42.708;23.360;2023-06-24T08:57:20;95492.28;;;30.43;47.28
36192;BME280;22233;42.708;23.360;2023-06-24T08:59:46;95484.69;;;30.56;46.30
36192;BME280;22233;42.708;23.360;2023-06-24T09:02:11;95487.34;;;30.47;47.04
36192;BME280;22233;42.708;23.360;2023-06-24T09:04:39;95488.66;;;30.59;47.09
36192;BME280;22233;42.708;23.360;2023-06-24T09:07:05;95480.28;;;30.72;45.88
36192;BME280;22233;42.708;23.360;2023-06-24T09:09:30;95485.66;;;29.87;47.75
36192;BME280;22233;42.708;23.360;2023-06-24T09:12:00;95456.94;;;30.00;47.65
36192;BME280;22233;42.708;23.360;2023-06-24T09:14:29;95463.84;;;30.12;47.23
36192;BME280;22233;42.708;23.360;2023-06-24T09:16:58;95466.16;;;30.30;48.34
36192;BME280;22233;42.708;23.360;2023-06-24T09:19:27;95476.50;;;30.49;47.60
36192;BME280;22233;42.708;23.360;2023-06-24T09:21:56;95473.41;;;30.89;46.74
36192;BME280;22233;42.708;23.360;2023-06-24T09:24:33;95471.19;;;31.10;46.27
36192;BME280;22233;42.708;23.360;2023-06-24T09:26:59;95475.34;;;31.31;46.69
36192;BME280;22233;42.708;23.360;2023-06-24T09:29:28;95477.09;;;31.54;45.88
36192;BME280;22233;42.708;23.360;2023-06-24T09:31:54;95482.03;;;31.62;44.26
36192;BME280;22233;42.708;23.360;2023-06-24T09:34:25;95472.03;;;31.61;44.85
36192;BME280;22233;42.708;23.360;2023-06-24T09:36:52;95479.34;;;31.72;45.24
36192;BME280;22233;42.708;23.360;2023-06-24T09:39:18;95473.03;;;31.80;44.32
36192;BME280;22233;42.708;23.360;2023-06-24T09:41:48;95481.09;;;31.91;44.04
36192;BME280;22233;42.708;23.360;2023-06-24T09:44:15;95480.91;;;31.85;44.50
36192;BME280;22233;42.708;23.360;2023-06-24T09:46:42;95492.09;;;32.11;44.40
36192;BME280;22233;42.708;23.360;2023-06-24T09:49:08;95488.63;;;32.07;43.57
36192;BME280;22233;42.708;23.360;2023-06-24T09:51:38;95474.78;;;32.13;43.33
36192;BME280;22233;42.708;23.360;2023-06-24T09:54:07;95470.09;;;32.10;44.08
36192;BME280;22233;42.708;23.360;2023-06-24T09:56:35;95487.94;;;32.16;42.31
36192;BME280;22233;42.708;23.360;2023-06-24T09:59:03;95475.28;;;32.33;42.20
36192;BME280;22233;42.708;23.360;2023-06-24T10:01:31;95474.00;;;32.47;42.19
36192;BME280;22233;42.708;23.360;2023-06-24T10:03:58;95466.34;;;32.60;43.09
36192;BME280;22233;42.708;23.360;2023-06-24T10:06:25;95465.25;;;32.45;42.91
36192;BME280;22233;42.708;23.360;2023-06-24T10:08:51;95457.78;;;32.29;42.95
36192;BME280;22233;42.708;23.360;2023-06-24T10:11:16;95459.94;;;32.47;43.71
36192;BME280;22233;42.708;23.360;2023-06-24T10:13:42;95458.16;;;32.75;42.71
36192;BME280;22233;42.708;23.360;2023-06-24T10:16:07;95450.81;;;32.78;40.94
36192;BME280;22233;42.708;23.360;2023-06-24T10:21:02;95454.50;;;32.88;42.13
36192;BME280;22233;42.708;23.360;2023-06-24T10:26:22;95426.31;;;32.78;42.19
36192;BME280;22233;42.708;23.360;2023-06-24T10:34:27;95423.19;;;33.08;41.95
36192;BME280;22233;42.708;23.360;2023-06-24T10:39:51;95413.38;;;33.43;41.50
36192;BME280;22233;42.708;23.360;2023-06-24T10:42:39;95402.47;;;33.55;41.37
36192;BME280;22233;42.708;23.360;2023-06-24T10:47:36;95383.28;;;33.62;40.25
36192;BME280;22233;42.708;23.360;2023-06-24T10:50:03;95384.72;;;33.36;40.98
36192;BME280;22233;42.708;23.360;2023-06-24T10:52:29;95384.72;;;33.86;39.88
36192;BME280;22233;42.708;23.360;2023-06-24T10:54:56;95387.25;;;33.93;39.07
36192;BME280;22233;42.708;23.360;2023-06-24T10:57:27;95379.47;;;34.15;38.96
36192;BME280;22233;42.708;23.360;2023-06-24T10:59:55;95375.38;;;34.07;38.87
36192;BME280;22233;42.708;23.360;2023-06-24T11:02:25;95376.00;;;34.20;36.12
36192;BME280;22233;42.708;23.360;2023-06-24T11:07:19;95369.25;;;33.99;36.72
36192;BME280;22233;42.708;23.360;2023-06-24T11:09:49;95361.13;;;34.38;34.93
36192;BME280;22233;42.708;23.360;2023-06-24T11:12:15;95366.16;;;34.16;36.44
36192;BME280;22233;42.708;23.360;2023-06-24T11:14:41;95367.88;;;34.22;35.82
36192;BME280;22233;42.708;23.360;2023-06-24T11:17:06;95359.72;;;34.25;32.47
36192;BME280;22233;42.708;23.360;2023-06-24T11:19:32;95373.03;;;34.42;34.04
36192;BME280;22233;42.708;23.360;2023-06-24T11:22:01;95368.47;;;34.27;35.00
36192;BME280;22233;42.708;23.360;2023-06-24T11:24:27;95366.75;;;34.38;37.04
36192;BME280;22233;42.708;23.360;2023-06-24T11:26:53;95347.16;;;34.53;34.06
36192;BME280;22233;42.708;23.360;2023-06-24T11:29:18;95359.66;;;34.80;33.12
36192;BME280;22233;42.708;23.360;2023-06-24T11:31:47;95374.41;;;34.84;33.90
36192;BME280;22233;42.708;23.360;2023-06-24T11:34:12;95370.13;;;34.98;34.40
36192;BME280;22233;42.708;23.360;2023-06-24T11:36:37;95362.56;;;35.04;35.43
36192;BME280;22233;42.708;23.360;2023-06-24T11:39:03;95376.00;;;34.67;34.39
36192;BME280;22233;42.708;23.360;2023-06-24T11:41:28;95360.66;;;34.68;34.15
36192;BME280;22233;42.708;23.360;2023-06-24T11:43:57;95367.38;;;34.70;33.90
36192;BME280;22233;42.708;23.360;2023-06-24T11:46:29;95364.88;;;34.54;31.67
36192;BME280;22233;42.708;23.360;2023-06-24T11:51:30;95339.44;;;34.63;32.47
36192;BME280;22233;42.708;23.360;2023-06-24T11:53:59;95347.16;;;34.53;33.25
36192;BME280;22233;42.708;23.360;2023-06-24T11:56:42;95330.59;;;34.18;34.38
36192;BME280;22233;42.708;23.360;2023-06-24T11:59:19;95318.09;;;34.19;34.32
36192;BME280;22233;42.708;23.360;2023-06-24T12:01:55;95327.63;;;34.22;35.35
36192;BME280;22233;42.708;23.360;2023-06-24T12:04:21;95330.28;;;34.16;35.74
36192;BME280;22233;42.708;23.360;2023-06-24T12:06:52;95323.38;;;33.99;36.25
36192;BME280;22233;42.708;23.360;2023-06-24T12:09:17;95304.59;;;34.05;35.86
36192;BME280;22233;42.708;23.360;2023-06-24T12:11:42;95308.66;;;34.22;36.15
36192;BME280;22233;42.708;23.360;2023-06-24T12:14:08;95304.59;;;34.14;36.29
36192;BME280;22233;42.708;23.360;2023-06-24T12:16:33;95299.59;;;34.28;36.06
36192;BME280;22233;42.708;23.360;2023-06-24T12:18:59;95301.59;;;34.09;36.69
36192;BME280;22233;42.708;23.360;2023-06-24T12:21:24;95295.78;;;33.57;37.65
36192;BME280;22233;42.708;23.360;2023-06-24T12:23:49;95295.38;;;33.77;36.69
36192;BME280;22233;42.708;23.360;2023-06-24T12:26:15;95278.63;;;33.73;36.70
36192;BME280;22233;42.708;23.360;2023-06-24T12:28:41;95304.91;;;33.98;37.02
36192;BME280;22233;42.708;23.360;2023-06-24T12:31:06;95293.31;;;34.05;38.55
36192;BME280;22233;42.708;23.360;2023-06-24T12:33:32;95292.72;;;34.01;37.39
36192;BME280;22233;42.708;23.360;2023-06-24T12:35:58;95296.91;;;33.96;36.85
36192;BME280;22233;42.708;23.360;2023-06-24T12:38:24;95295.81;;;33.85;36.90
36192;BME280;22233;42.708;23.360;2023-06-24T12:40:49;95303.16;;;33.63;37.27
36192;BME280;22233;42.708;23.360;2023-06-24T12:43:15;95309.75;;;33.79;37.14
36192;BME280;22233;42.708;23.360;2023-06-24T12:45:41;95328.84;;;33.75;37.70
36192;BME280;22233;42.708;23.360;2023-06-24T12:48:13;95325.41;;;33.21;38.76
36192;BME280;22233;42.708;23.360;2023-06-24T12:50:39;95351.31;;;33.56;38.41
36192;BME280;22233;42.708;23.360;2023-06-24T12:53:04;95345.78;;;33.34;37.83
36192;BME280;22233;42.708;23.360;2023-06-24T12:55:30;95349.25;;;33.07;38.24
36192;BME280;22233;42.708;23.360;2023-06-24T12:57:56;95351.75;;;33.36;37.81
36192;BME280;22233;42.708;23.360;2023-06-24T13:00:22;95364.88;;;33.08;38.51
36192;BME280;22233;42.708;23.360;2023-06-24T13:02:48;95352.84;;;33.08;38.42
36192;BME280;22233;42.708;23.360;2023-06-24T13:05:14;95342.03;;;32.97;38.07
36192;BME280;22233;42.708;23.360;2023-06-24T13:07:40;95340.38;;;33.09;37.27
36192;BME280;22233;42.708;23.360;2023-06-24T13:10:06;95322.16;;;32.91;37.97
36192;BME280;22233;42.708;23.360;2023-06-24T13:12:32;95325.09;;;32.88;38.74
36192;BME280;22233;42.708;23.360;2023-06-24T13:14:58;95307.06;;;33.07;38.71
36192;BME280;22233;42.708;23.360;2023-06-24T13:17:24;95314.06;;;33.02;38.68
36192;BME280;22233;42.708;23.360;2023-06-24T13:19:50;95314.13;;;33.12;38.98
36192;BME280;22233;42.708;23.360;2023-06-24T13:22:16;95318.50;;;32.81;39.81